Time;durP1;ratioP1;P1;durP2;ratioP2;P2;SDS_P1;SDS_P2;PMS_P1;PMS_P2;Temp;Humidity;BMP_temperature;BMP_pressure;BME280_temperature;BME280_humidity;BME280_pressure;Samples;Min_cycle;Max_cycle;Signal;HPM_P1;HPM_P2
2021/03/25 00:00:50;;;;;;;;;22.25;20.00;;;;;11.23;46.15;98991.72;4892234;28;105253;-84
2021/03/25 00:03:17;;;;;;;;;24.00;22.50;;;;;11.23;46.24;98994.44;4780371;28;104093;-84
2021/03/25 00:05:47;;;;;;;;;37.00;28.00;;;;;11.21;45.98;98989.25;4898999;28;102560;-85
2021/03/25 00:08:15;;;;;;;;;24.50;22.25;;;;;11.21;45.87;98982.97;4921536;28;102792;-84
2021/03/25 00:10:42;;;;;;;;;22.00;20.50;;;;;11.19;46.08;98996.69;4889474;28;103010;-84
2021/03/25 00:13:10;;;;;;;;;19.50;17.50;;;;;11.21;46.01;98983.81;4906134;28;104139;-85
2021/03/25 00:15:37;;;;;;;;;28.25;22.00;;;;;11.19;45.89;98984.00;4902670;28;102449;-85
2021/03/25 00:18:04;;;;;;;;;22.50;20.75;;;;;11.17;45.55;98987.94;4920294;28;103290;-84
2021/03/25 00:20:32;;;;;;;;;26.75;21.25;;;;;11.20;45.96;98984.84;4917457;28;102585;-84
2021/03/25 00:22:58;;;;;;;;;26.50;23.25;;;;;11.19;46.00;98992.13;4843560;28;104197;-84
2021/03/25 00:25:27;;;;;;;;;25.25;22.75;;;;;11.19;45.94;98991.28;4874313;28;102454;-82
2021/03/25 00:27:54;;;;;;;;;23.25;21.25;;;;;11.17;46.01;98977.94;4912456;28;103327;-82
2021/03/25 00:30:23;;;;;;;;;19.00;14.00;;;;;11.18;45.88;98978.78;4813209;28;104175;-82
2021/03/25 00:32:50;;;;;;;;;26.75;21.00;;;;;11.18;45.92;98981.50;4887880;28;104017;-82
2021/03/25 00:35:18;;;;;;;;;25.50;21.75;;;;;11.16;46.01;98981.69;4910512;28;103103;-82
2021/03/25 00:37:44;;;;;;;;;26.75;22.75;;;;;11.17;45.80;98971.69;4911531;28;103736;-82
2021/03/25 00:40:11;;;;;;;;;20.00;18.25;;;;;11.16;46.05;98976.28;4747505;28;102354;-82
2021/03/25 00:42:38;;;;;;;;;18.75;16.25;;;;;11.16;45.79;98968.16;4824807;28;104020;-81
2021/03/25 00:45:12;;;;;;;;;26.50;22.00;;;;;11.17;45.81;98960.84;4887767;28;102573;-81
2021/03/25 00:47:39;;;;;;;;;21.25;20.50;;;;;11.15;45.91;98963.78;4913757;28;103189;-82
2021/03/25 00:50:10;;;;;;;;;22.25;21.25;;;;;11.16;45.66;98964.63;4845393;28;102605;-82
2021/03/25 00:52:36;;;;;;;;;23.00;21.25;;;;;11.15;45.32;98963.78;4711966;28;104081;-81
2021/03/25 00:55:05;;;;;;;;;24.00;21.75;;;;;11.15;45.81;98957.53;4830511;28;102670;-84
2021/03/25 00:57:31;;;;;;;;;22.75;19.50;;;;;11.15;45.83;98960.25;4899184;28;103301;-84
2021/03/25 00:59:58;;;;;;;;;21.25;19.50;;;;;11.15;45.54;98962.94;4893592;28;102214;-84
2021/03/25 01:02:25;;;;;;;;;22.75;19.00;;;;;11.14;45.89;98951.28;4912953;28;104736;-84
2021/03/25 01:04:52;;;;;;;;;21.00;19.25;;;;;11.15;45.71;98946.69;4923206;28;102614;-84
2021/03/25 01:07:28;;;;;;;;;23.00;21.50;;;;;11.15;45.83;98949.41;4915940;28;103113;-84
2021/03/25 01:09:54;;;;;;;;;26.25;21.75;;;;;11.13;45.68;98949.59;4908327;28;102643;-85
2021/03/25 01:12:21;;;;;;;;;26.50;21.75;;;;;11.12;45.94;98944.41;4845497;28;105711;-84
2021/03/25 01:14:48;;;;;;;;;22.25;19.75;;;;;11.12;45.88;98942.50;4897329;28;102538;-84
2021/03/25 01:17:15;;;;;;;;;25.00;22.00;;;;;11.14;45.88;98945.03;4907971;28;105634;-84
2021/03/25 01:19:42;;;;;;;;;22.50;20.25;;;;;11.12;45.75;98936.28;4785310;28;102308;-84
2021/03/25 01:22:09;;;;;;;;;19.50;17.75;;;;;11.12;45.77;98937.09;4759100;28;104091;-85
2021/03/25 01:24:35;;;;;;;;;21.75;19.00;;;;;11.11;45.80;98930.03;4814100;28;102172;-84
2021/03/25 01:27:02;;;;;;;;;18.75;17.75;;;;;11.12;45.68;98925.47;4862497;28;102266;-85
2021/03/25 01:29:29;;;;;;;;;24.00;19.75;;;;;11.11;45.65;98923.78;4866880;28;102721;-84
2021/03/25 01:31:56;;;;;;;;;20.75;19.00;;;;;11.10;45.58;98925.63;4856079;28;104085;-85
2021/03/25 01:34:22;;;;;;;;;16.50;13.00;;;;;11.12;45.69;98926.25;4896464;28;102296;-84
2021/03/25 01:36:49;;;;;;;;;21.00;18.50;;;;;11.11;45.58;98923.78;4829665;28;102175;-84
2021/03/25 01:39:17;;;;;;;;;23.00;22.00;;;;;11.10;45.59;98927.50;4855336;28;104239;-84
2021/03/25 01:41:44;;;;;;;;;21.75;19.75;;;;;11.09;45.47;98920.41;4875442;28;105691;-85
2021/03/25 01:44:33;;;;;;;;;26.00;21.25;;;;;11.09;45.49;98929.38;4886962;28;104422;-84
2021/03/25 01:47:00;;;;;;;;;19.00;17.50;;;;;11.08;45.73;98927.69;4901009;28;103130;-85
2021/03/25 01:49:27;;;;;;;;;26.75;22.50;;;;;11.08;45.69;98918.75;4888314;28;104200;-84
2021/03/25 01:52:12;;;;;;;;;18.75;16.75;;;;;11.12;45.47;98917.34;4771252;28;104052;-84
2021/03/25 01:55:09;;;;;;;;;18.75;17.25;;;;;11.11;45.76;98919.19;4827851;28;102282;-81
2021/03/25 01:57:35;;;;;;;;;22.00;17.50;;;;;11.12;45.67;98920.03;4792112;28;105546;-82
2021/03/25 02:00:11;;;;;;;;;23.25;20.00;;;;;11.14;45.66;98923.38;4876625;28;106110;-82
2021/03/25 02:02:56;;;;;;;;;19.00;17.25;;;;;11.13;45.63;98919.00;4743613;28;104140;-82
2021/03/25 02:05:27;;;;;;;;;21.50;17.00;;;;;11.12;45.64;98906.50;4887316;28;102195;-82
2021/03/25 02:08:17;;;;;;;;;20.25;17.25;;;;;11.13;45.77;98917.13;4890590;28;102653;-82
2021/03/25 02:11:02;;;;;;;;;19.25;17.25;;;;;11.14;45.37;98915.25;4836859;28;102675;-81
2021/03/25 02:13:53;;;;;;;;;20.50;16.75;;;;;11.14;45.75;98907.13;4902272;28;104128;-82
2021/03/25 02:16:46;;;;;;;;;20.50;17.00;;;;;11.14;45.45;98907.97;4919520;28;102262;-81
2021/03/25 02:19:52;;;;;;;;;19.25;17.25;;;;;11.14;45.57;98907.13;4871945;28;102289;-81
2021/03/25 02:22:38;;;;;;;;;19.00;16.50;;;;;11.13;45.34;98900.03;4902319;28;102573;-81
2021/03/25 02:25:04;;;;;;;;;19.75;17.75;;;;;11.13;45.53;98902.75;4843084;28;104052;-82
2021/03/25 02:27:52;;;;;;;;;21.75;18.50;;;;;11.12;45.67;98907.31;4758020;28;102935;-82
2021/03/25 02:30:33;;;;;;;;;17.50;16.75;;;;;11.12;45.34;98901.09;4794943;28;103649;-81
2021/03/25 02:33:00;;;;;;;;;22.50;18.75;;;;;11.11;45.77;98904.84;4908886;28;106452;-82
2021/03/25 02:35:33;;;;;;;;;21.75;19.50;;;;;11.10;45.39;98904.00;4869826;28;104713;-81
2021/03/25 02:38:13;;;;;;;;;20.00;19.00;;;;;11.09;45.72;98894.19;4778126;28;103606;-82
2021/03/25 02:40:48;;;;;;;;;20.75;18.00;;;;;11.08;45.39;98900.63;4756681;28;102718;-82
2021/03/25 02:43:17;;;;;;;;;22.25;19.75;;;;;11.09;45.46;98898.78;4898450;28;102782;-82
2021/03/25 02:45:51;;;;;;;;;17.75;9.75;;;;;11.08;45.22;98897.09;4895026;28;104322;-82
2021/03/25 02:48:18;;;;;;;;;23.75;18.75;;;;;11.08;45.63;98894.38;4827689;28;103274;-81
2021/03/25 02:50:55;;;;;;;;;18.25;17.00;;;;;11.07;45.78;98896.28;4875995;28;102842;-82
2021/03/25 02:53:36;;;;;;;;;19.50;17.50;;;;;11.07;45.63;98895.44;4912947;28;102464;-82
2021/03/25 02:56:09;;;;;;;;;21.75;18.25;;;;;11.06;45.76;98885.63;4894618;28;104137;-81
2021/03/25 02:58:36;;;;;;;;;17.50;15.00;;;;;11.07;45.37;98900.84;4902356;28;102664;-82
2021/03/25 03:01:09;;;;;;;;;22.50;20.50;;;;;11.07;45.48;98890.03;4825944;28;108573;-82
2021/03/25 03:03:39;;;;;;;;;19.75;16.25;;;;;11.05;45.62;98887.50;4896497;28;102315;-82
2021/03/25 03:06:07;;;;;;;;;20.25;19.00;;;;;11.06;45.40;98894.59;4909203;28;104019;-82
2021/03/25 03:08:39;;;;;;;;;26.25;20.00;;;;;11.06;45.48;98885.63;4898425;28;102184;-81
2021/03/25 03:11:11;;;;;;;;;19.25;17.00;;;;;11.05;45.22;98889.38;4882098;28;102883;-81
2021/03/25 03:13:41;;;;;;;;;20.50;17.75;;;;;11.04;45.36;98895.81;4924121;28;102299;-81
2021/03/25 03:16:16;;;;;;;;;21.50;18.75;;;;;11.05;45.53;98897.50;4909649;28;104092;-81
2021/03/25 03:18:45;;;;;;;;;20.75;18.25;;;;;11.05;46.23;98892.06;4899961;28;102709;-81
2021/03/25 03:21:18;;;;;;;;;25.25;18.00;;;;;11.03;45.43;98897.69;4872028;28;102491;-81
2021/03/25 03:23:45;;;;;;;;;25.25;18.50;;;;;11.04;45.26;98893.09;4930801;28;105192;-82
2021/03/25 03:26:14;;;;;;;;;21.50;18.25;;;;;11.04;45.64;98891.25;4716261;28;104036;-85
2021/03/25 03:28:46;;;;;;;;;20.75;17.50;;;;;11.01;45.43;98886.22;4805872;28;102525;-84
2021/03/25 03:31:17;;;;;;;;;26.75;18.50;;;;;11.04;45.51;98890.41;4898152;28;102352;-85
2021/03/25 03:33:49;;;;;;;;;18.75;15.50;;;;;11.03;45.48;98876.03;4910414;28;102788;-85
2021/03/25 03:36:18;;;;;;;;;20.00;15.25;;;;;11.03;45.21;98889.56;4878991;28;103932;-84
2021/03/25 03:39:02;;;;;;;;;26.75;19.50;;;;;11.04;45.28;98885.00;4901790;28;102916;-84
2021/03/25 03:41:36;;;;;;;;;22.00;19.00;;;;;11.04;45.43;98885.00;4887393;28;102336;-84
2021/03/25 03:44:08;;;;;;;;;21.25;19.25;;;;;11.04;45.33;98885.81;4891463;28;106415;-84
2021/03/25 03:46:35;;;;;;;;;17.75;15.25;;;;;11.04;45.57;98885.00;4693614;28;108937;-84
2021/03/25 03:49:02;;;;;;;;;17.50;15.25;;;;;11.03;45.38;98888.75;4827913;28;102552;-85
2021/03/25 03:51:53;;;;;;;;;22.25;19.25;;;;;11.04;45.33;98890.41;4883098;28;102364;-85
2021/03/25 03:54:22;;;;;;;;;21.00;17.00;;;;;11.04;45.39;98879.56;4829954;28;102991;-82
2021/03/25 03:57:17;;;;;;;;;21.50;17.75;;;;;11.03;45.44;98878.72;4893439;28;108520;-82
2021/03/25 04:00:00;;;;;;;;;18.50;16.50;;;;;11.03;45.51;98877.94;4667610;28;105512;-82
2021/03/25 04:02:37;;;;;;;;;17.25;17.00;;;;;11.01;45.35;98880.81;4802922;28;102388;-82
2021/03/25 04:05:35;;;;;;;;;19.25;18.00;;;;;11.03;45.44;98877.94;4857431;28;103654;-82
2021/03/25 04:08:28;;;;;;;;;18.00;17.25;;;;;11.04;45.44;98877.72;4911158;28;106039;-82
2021/03/25 04:11:15;;;;;;;;;23.25;17.00;;;;;11.07;45.32;98876.50;4918374;28;102705;-82
2021/03/25 04:13:55;;;;;;;;;21.75;17.00;;;;;11.12;45.29;98882.16;4872349;28;102632;-82
2021/03/25 04:16:23;;;;;;;;;19.25;14.25;;;;;11.14;44.89;98880.06;4842862;28;102617;-81
2021/03/25 04:19:35;;;;;;;;;18.75;15.00;;;;;11.18;45.13;98875.94;4792978;28;104120;-82
2021/03/25 04:22:07;;;;;;;;;18.25;15.00;;;;;11.24;45.02;98877.00;4749690;28;102347;-82
2021/03/25 04:24:43;;;;;;;;;18.25;16.00;;;;;11.26;45.14;98878.47;4770424;28;103651;-82
2021/03/25 04:27:22;;;;;;;;;16.25;14.00;;;;;11.31;45.01;98877.88;4818839;28;106450;-82
2021/03/25 04:29:58;;;;;;;;;17.25;16.00;;;;;11.34;44.77;98875.63;4887544;28;104054;-81
2021/03/25 04:32:25;;;;;;;;;16.25;13.50;;;;;11.38;44.80;98881.47;4809546;28;104029;-82
2021/03/25 04:34:52;;;;;;;;;22.25;15.25;;;;;11.40;45.02;98876.69;4899269;28;104164;-82
2021/03/25 04:37:19;;;;;;;;;12.50;11.75;;;;;11.43;44.67;98881.72;4889043;28;102421;-82
2021/03/25 04:39:46;;;;;;;;;15.00;14.00;;;;;11.45;44.93;98879.63;4893839;28;105121;-82
2021/03/25 04:42:12;;;;;;;;;20.75;16.00;;;;;11.47;44.73;98880.28;4875976;28;102346;-82
2021/03/25 04:44:44;;;;;;;;;15.50;13.50;;;;;11.48;44.60;98877.34;4823593;28;103461;-82
2021/03/25 04:47:27;;;;;;;;;20.25;16.75;;;;;11.48;44.68;98890.91;4819407;28;103448;-82
2021/03/25 04:50:04;;;;;;;;;22.50;17.50;;;;;11.49;45.10;98884.44;4843433;28;103792;-82
2021/03/25 04:52:32;;;;;;;;;16.75;14.25;;;;;11.51;44.69;98886.97;4654127;28;105221;-82
2021/03/25 04:55:21;;;;;;;;;18.75;14.00;;;;;11.52;44.41;98894.91;4646668;28;102812;-82
2021/03/25 04:57:54;;;;;;;;;16.00;13.50;;;;;11.54;44.73;98902.81;4803479;28;102993;-82
2021/03/25 05:00:27;;;;;;;;;20.00;17.00;;;;;11.52;44.62;98900.31;4757355;28;104193;-82
2021/03/25 05:02:56;;;;;;;;;19.00;16.75;;;;;11.53;44.96;98893.84;4860220;28;103074;-82
2021/03/25 05:05:26;;;;;;;;;15.00;11.50;;;;;11.53;44.43;98896.56;4842597;28;104699;-85
2021/03/25 05:08:06;;;;;;;;;19.50;16.00;;;;;11.54;44.76;98895.53;4905733;28;102242;-85
2021/03/25 05:10:43;;;;;;;;;21.50;19.50;;;;;11.52;44.64;98892.19;4892000;28;104394;-85
2021/03/25 05:13:31;;;;;;;;;14.00;12.75;;;;;11.54;44.75;98900.09;4908102;28;103051;-85
2021/03/25 05:16:15;;;;;;;;;18.00;16.50;;;;;11.54;44.50;98909.06;4919213;28;104187;-85
2021/03/25 05:19:19;;;;;;;;;17.25;13.50;;;;;11.53;44.92;98906.53;4889285;28;103862;-85
2021/03/25 05:22:10;;;;;;;;;17.50;16.25;;;;;11.56;44.64;98907.00;4755631;28;110137;-85
2021/03/25 05:24:45;;;;;;;;;19.00;17.75;;;;;11.55;44.53;98907.19;4716719;28;102568;-83
2021/03/25 05:27:32;;;;;;;;;23.75;19.50;;;;;11.58;44.85;98909.50;4852088;28;102618;-86
2021/03/25 05:30:00;;;;;;;;;21.00;16.50;;;;;11.58;45.23;98909.50;4712358;28;104893;-86
2021/03/25 05:32:30;;;;;;;;;22.75;17.50;;;;;11.56;45.53;98907.00;4876250;28;102948;-86
2021/03/25 05:34:57;;;;;;;;;23.00;18.25;;;;;11.57;45.72;98903.25;4890457;28;102985;-86
2021/03/25 05:37:24;;;;;;;;;18.00;15.00;;;;;11.56;45.27;98911.59;4880747;28;102646;-86
2021/03/25 05:39:51;;;;;;;;;21.75;16.75;;;;;11.55;45.40;98916.16;4839592;28;102941;-85
2021/03/25 05:42:43;;;;;;;;;17.75;15.00;;;;;11.53;45.34;98907.38;4712373;28;103101;-86
2021/03/25 05:45:30;;;;;;;;;18.25;14.50;;;;;11.56;45.54;98917.00;4761908;28;102390;-86
2021/03/25 05:48:18;;;;;;;;;14.50;14.25;;;;;11.55;45.21;98913.44;4893829;28;102638;-85
2021/03/25 05:51:13;;;;;;;;;23.50;19.00;;;;;11.54;45.26;98911.78;4726179;28;102569;-85
2021/03/25 05:54:16;;;;;;;;;23.00;19.50;;;;;11.54;45.13;98916.34;4707230;28;110911;-85
2021/03/25 05:56:52;;;;;;;;;19.25;15.75;;;;;11.54;45.02;98906.34;4845138;28;105737;-85
2021/03/25 05:59:20;;;;;;;;;18.50;18.25;;;;;11.54;45.27;98922.59;4871363;28;102418;-85
2021/03/25 06:02:05;;;;;;;;;19.00;17.75;;;;;11.48;45.50;98911.75;4800571;28;102661;-85
2021/03/25 06:04:34;;;;;;;;;19.50;17.50;;;;;11.54;45.19;98919.06;4850407;28;104643;-86
2021/03/25 06:07:06;;;;;;;;;18.50;15.50;;;;;11.46;44.70;98909.22;4887758;28;102995;-85
2021/03/25 06:09:38;;;;;;;;;18.25;15.25;;;;;11.53;45.06;98923.63;4893324;28;102383;-86
2021/03/25 06:12:09;;;;;;;;;19.25;15.50;;;;;11.53;45.11;98920.94;4914723;28;102296;-86
2021/03/25 06:14:51;;;;;;;;;18.25;15.75;;;;;11.51;45.03;98928.44;4882610;28;104306;-85
2021/03/25 06:17:55;;;;;;;;;19.75;16.75;;;;;11.53;45.60;98929.06;4712842;28;104236;-86
2021/03/25 06:20:44;;;;;;;;;20.25;18.00;;;;;11.53;44.94;98923.63;4890382;28;102358;-85
2021/03/25 06:23:30;;;;;;;;;19.00;17.25;;;;;11.53;45.09;98928.22;4883658;28;102229;-86
2021/03/25 06:26:12;;;;;;;;;19.25;16.00;;;;;11.50;44.77;98924.03;4835603;28;103421;-86
2021/03/25 06:28:44;;;;;;;;;16.50;11.25;;;;;11.51;44.70;98925.72;4898069;28;102388;-85
2021/03/25 06:31:33;;;;;;;;;22.75;17.50;;;;;11.52;44.66;98926.56;4884520;28;102406;-86
2021/03/25 06:34:11;;;;;;;;;19.25;17.25;;;;;11.49;44.81;98913.41;4886391;28;103357;-86
2021/03/25 06:36:47;;;;;;;;;22.25;18.00;;;;;11.51;45.10;98933.00;4760990;28;108946;-85
2021/03/25 06:39:40;;;;;;;;;16.00;14.25;;;;;11.51;44.88;98927.59;4881169;28;103129;-86
2021/03/25 06:42:44;;;;;;;;;20.50;17.25;;;;;11.50;44.91;98924.03;4750493;28;102256;-86
2021/03/25 06:45:33;;;;;;;;;18.25;16.25;;;;;11.50;44.95;98926.75;4814142;28;102339;-85
2021/03/25 06:48:06;;;;;;;;;22.25;17.25;;;;;11.49;44.50;98935.91;4912983;28;104237;-85
2021/03/25 06:50:44;;;;;;;;;20.75;18.00;;;;;11.48;44.60;98934.22;4808443;28;102706;-85
2021/03/25 06:53:21;;;;;;;;;21.75;19.25;;;;;11.49;44.83;98926.94;4879054;28;102251;-85
2021/03/25 06:56:11;;;;;;;;;18.75;16.75;;;;;11.48;44.81;98942.34;4889018;28;102187;-85
2021/03/25 06:58:46;;;;;;;;;19.25;17.25;;;;;11.48;44.82;98934.22;4881211;28;104720;-86
2021/03/25 07:01:21;;;;;;;;;16.25;15.75;;;;;11.49;44.82;98945.91;4911341;28;103789;-85
2021/03/25 07:03:50;;;;;;;;;21.75;17.50;;;;;11.49;44.75;98948.59;4905970;28;102700;-86
2021/03/25 07:06:17;;;;;;;;;18.00;14.75;;;;;11.49;44.88;98935.91;4904365;28;102819;-85
2021/03/25 07:08:44;;;;;;;;;22.00;18.00;;;;;11.47;44.84;98939.84;4877375;28;105929;-86
2021/03/25 07:11:19;;;;;;;;;21.50;20.00;;;;;11.48;44.71;98947.75;4882757;28;102732;-86
2021/03/25 07:13:56;;;;;;;;;19.75;17.75;;;;;11.49;44.86;98949.44;4890600;28;102433;-85
2021/03/25 07:16:23;;;;;;;;;17.25;17.25;;;;;11.49;44.52;98943.19;4872852;28;104698;-86
2021/03/25 07:18:57;;;;;;;;;21.25;17.00;;;;;11.46;45.14;98947.13;4857738;28;104425;-85
2021/03/25 07:21:34;;;;;;;;;7.00;6.75;;;;;11.49;44.73;98954.00;4894918;28;105076;-86
2021/03/25 07:24:34;;;;;;;;;18.25;16.50;;;;;11.48;44.66;98953.19;4880916;28;103458;-86
2021/03/25 07:27:04;;;;;;;;;23.25;16.50;;;;;11.47;44.81;98956.94;4761551;28;102866;-86
2021/03/25 07:29:33;;;;;;;;;22.75;15.75;;;;;11.48;44.98;98950.47;4740818;28;104450;-86
2021/03/25 07:32:13;;;;;;;;;24.00;17.75;;;;;11.48;44.82;98958.59;4844338;28;102924;-86
2021/03/25 07:34:50;;;;;;;;;21.25;17.25;;;;;11.49;44.78;98949.44;4869533;28;102327;-86
2021/03/25 07:37:32;;;;;;;;;20.00;16.50;;;;;11.46;44.81;98957.97;4808341;28;103070;-86
2021/03/25 07:40:06;;;;;;;;;16.75;16.00;;;;;11.48;44.87;98958.59;4805803;28;104337;-85
2021/03/25 07:42:37;;;;;;;;;21.25;19.00;;;;;11.46;44.60;98957.97;4856876;28;102506;-85
2021/03/25 07:45:17;;;;;;;;;15.00;12.00;;;;;11.47;44.79;98951.53;4847882;28;102805;-85
2021/03/25 07:47:44;;;;;;;;;17.75;15.50;;;;;11.48;44.92;98961.31;4784022;28;103831;-86
2021/03/25 07:50:31;;;;;;;;;18.00;16.00;;;;;11.48;44.48;98950.47;4790715;28;104512;-86
2021/03/25 07:52:57;;;;;;;;;25.50;20.25;;;;;11.47;44.75;98948.81;4693068;28;105146;-86
2021/03/25 07:55:28;;;;;;;;;23.75;21.00;;;;;11.48;44.69;98966.72;4730112;28;102733;-85
2021/03/25 07:57:56;;;;;;;;;20.00;18.00;;;;;11.47;44.72;98956.94;4648954;28;104676;-85
2021/03/25 08:00:28;;;;;;;;;17.50;15.75;;;;;11.47;44.48;98951.53;4714189;28;102930;-86
2021/03/25 08:03:14;;;;;;;;;17.25;16.00;;;;;11.49;44.78;98956.72;4896933;28;103059;-82
2021/03/25 08:05:43;;;;;;;;;18.25;14.00;;;;;11.48;44.89;98953.19;4909282;28;102762;-86
2021/03/25 08:08:38;;;;;;;;;16.75;14.00;;;;;11.48;44.78;98953.19;4903369;28;102224;-85
2021/03/25 08:11:20;;;;;;;;;19.50;15.25;;;;;11.49;44.78;98957.56;4753429;28;108988;-86
2021/03/25 08:13:52;;;;;;;;;20.00;18.75;;;;;11.49;44.82;98952.16;4803476;28;102626;-85
2021/03/25 08:16:21;;;;;;;;;19.75;18.00;;;;;11.49;44.65;98957.56;4884252;28;104428;-86
2021/03/25 08:19:13;;;;;;;;;20.00;14.25;;;;;11.50;44.51;98947.56;4889385;28;103044;-85
2021/03/25 08:21:58;;;;;;;;;23.00;16.25;;;;;11.50;44.68;98959.25;4781722;28;108660;-86
2021/03/25 08:25:04;;;;;;;;;4.75;4.50;;;;;11.50;44.65;98961.94;4905513;28;104879;-86
2021/03/25 08:28:01;;;;;;;;;21.25;17.50;;;;;11.49;44.71;98954.84;4882183;28;105297;-86
2021/03/25 08:31:17;;;;;;;;;18.75;16.00;;;;;11.50;44.71;98961.94;4891085;28;104021;-86
2021/03/25 08:33:52;;;;;;;;;22.00;16.50;;;;;11.50;44.21;98955.69;4813761;28;104189;-86
2021/03/25 08:36:37;;;;;;;;;20.75;20.25;;;;;11.50;44.58;98948.41;4820402;28;102681;-85
2021/03/25 08:39:19;;;;;;;;;22.25;18.50;;;;;11.50;44.60;98961.94;4803159;28;102433;-86
2021/03/25 08:41:48;;;;;;;;;19.75;18.00;;;;;11.51;44.60;98960.09;4875539;28;102412;-86
2021/03/25 08:44:39;;;;;;;;;21.00;16.50;;;;;11.51;44.64;98958.22;4813535;28;104080;-86
2021/03/25 08:47:42;;;;;;;;;19.50;16.75;;;;;11.51;44.83;98958.22;4890616;28;102534;-85
2021/03/25 08:50:29;;;;;;;;;19.50;15.50;;;;;11.51;44.23;98951.97;4886782;28;102300;-86
2021/03/25 08:52:55;;;;;;;;;20.50;17.75;;;;;11.50;44.78;98945.72;4889495;28;102428;-86
2021/03/25 08:55:25;;;;;;;;;18.50;15.50;;;;;11.52;44.50;98954.47;4877686;28;105613;-85
2021/03/25 08:57:58;;;;;;;;;16.25;14.50;;;;;11.52;44.68;98948.22;4917456;28;103525;-86
2021/03/25 09:00:26;;;;;;;;;19.25;17.00;;;;;11.53;44.45;98939.03;4878973;28;102876;-86
2021/03/25 09:02:56;;;;;;;;;17.25;16.25;;;;;11.53;44.61;98944.47;4876195;28;103341;-86
2021/03/25 09:05:38;;;;;;;;;16.25;14.25;;;;;11.52;44.20;98949.06;4883953;28;104027;-86
2021/03/25 09:08:12;;;;;;;;;15.50;15.50;;;;;11.53;44.57;98945.28;4889832;28;102408;-86
2021/03/25 09:10:51;;;;;;;;;18.75;16.50;;;;;11.53;44.75;98950.72;4888277;28;102362;-86
2021/03/25 09:13:23;;;;;;;;;14.50;13.75;;;;;11.54;44.45;98948.84;4891747;28;103542;-86
2021/03/25 09:15:49;;;;;;;;;20.00;16.50;;;;;11.54;44.55;98952.41;4883022;28;104016;-85
2021/03/25 09:18:18;;;;;;;;;20.00;18.00;;;;;11.55;44.60;98943.25;4870465;28;102447;-87
2021/03/25 09:20:47;;;;;;;;;21.75;16.00;;;;;11.55;44.54;98937.00;4771218;28;103236;-86
2021/03/25 09:23:32;;;;;;;;;19.00;15.25;;;;;11.55;44.66;98935.13;4812730;28;102790;-86
2021/03/25 09:26:11;;;;;;;;;18.25;15.25;;;;;11.57;44.25;98940.34;4890657;28;104090;-86
2021/03/25 09:29:06;;;;;;;;;15.00;13.25;;;;;11.57;44.49;98935.75;4772351;28;102254;-85
2021/03/25 09:31:39;;;;;;;;;15.00;14.00;;;;;11.58;44.61;98932.00;4843807;28;102378;-86
2021/03/25 09:34:09;;;;;;;;;17.50;15.25;;;;;11.57;44.60;98938.44;4829607;28;105960;-84
2021/03/25 09:36:36;;;;;;;;;18.50;15.00;;;;;11.58;44.61;98932.00;4829546;28;109179;-84
2021/03/25 09:39:03;;;;;;;;;17.75;14.50;;;;;11.58;44.52;98934.72;4882580;28;102603;-87
2021/03/25 09:41:32;;;;;;;;;18.00;13.50;;;;;11.59;44.89;98939.09;4904223;28;102232;-86
2021/03/25 09:44:11;;;;;;;;;17.50;12.75;;;;;11.58;44.66;98937.41;4835941;28;102865;-86
2021/03/25 09:46:49;;;;;;;;;18.75;15.50;;;;;11.60;44.40;98937.22;4884472;28;104407;-86
2021/03/25 09:49:25;;;;;;;;;18.50;15.00;;;;;11.60;44.39;98940.78;4799539;28;102820;-86
2021/03/25 09:52:13;;;;;;;;;17.00;13.25;;;;;11.61;44.42;98930.78;4746730;28;102305;-85
2021/03/25 09:54:41;;;;;;;;;13.25;11.75;;;;;11.60;44.33;98920.97;4902439;28;102372;-86
2021/03/25 09:57:34;;;;;;;;;23.50;17.00;;;;;11.61;44.85;98928.91;4851320;28;105136;-86
2021/03/25 10:00:16;;;;;;;;;16.75;14.50;;;;;11.61;44.29;98923.50;4901243;28;102919;-86
2021/03/25 10:02:48;;;;;;;;;18.00;13.00;;;;;11.63;44.67;98934.94;4913476;28;102714;-85
2021/03/25 10:08:03;;;;;;;;;13.00;12.00;;;;;11.64;44.46;98925.78;4823402;28;104053;-87
2021/03/25 10:10:33;;;;;;;;;16.25;12.00;;;;;11.65;44.45;98923.94;4744662;28;102644;-86
2021/03/25 10:13:05;;;;;;;;;18.00;15.50;;;;;11.64;44.73;98916.84;4838283;28;102279;-86
2021/03/25 10:15:41;;;;;;;;;15.00;14.00;;;;;11.65;43.92;98918.50;4906375;28;102284;-86
2021/03/25 10:18:17;;;;;;;;;16.25;14.00;;;;;11.66;44.32;98917.47;4763186;28;103813;-86
2021/03/25 10:20:47;;;;;;;;;15.75;14.00;;;;;11.67;44.35;98923.72;4906448;28;102403;-86
2021/03/25 10:23:23;;;;;;;;;16.75;14.75;;;;;11.68;44.39;98919.97;4930278;28;102506;-86
2021/03/25 10:25:52;;;;;;;;;14.25;14.25;;;;;11.68;44.44;98922.69;4906579;28;102270;-86
2021/03/25 10:28:25;;;;;;;;;17.50;15.00;;;;;11.69;44.30;98913.53;4914761;28;104117;-86
2021/03/25 10:31:21;;;;;;;;;13.75;12.75;;;;;11.71;44.07;98920.41;4843532;28;103711;-86
2021/03/25 10:33:49;;;;;;;;;16.00;13.50;;;;;11.71;44.50;98916.88;4799646;28;102913;-85
2021/03/25 10:36:18;;;;;;;;;18.25;14.50;;;;;11.71;44.51;98916.88;4831872;28;102440;-86
2021/03/25 10:38:58;;;;;;;;;18.50;13.00;;;;;11.72;44.51;98911.28;4909226;28;105251;-86
2021/03/25 10:41:31;;;;;;;;;15.50;13.75;;;;;11.75;44.39;98910.91;4895258;28;104006;-87
2021/03/25 10:43:58;;;;;;;;;16.00;13.00;;;;;11.74;44.56;98903.78;4895605;28;102602;-86
2021/03/25 10:46:36;;;;;;;;;15.25;14.50;;;;;11.77;44.61;98907.97;4869824;28;102238;-86
2021/03/25 10:49:11;;;;;;;;;15.25;13.50;;;;;11.78;44.48;98912.34;4897625;28;104353;-86
2021/03/25 10:51:40;;;;;;;;;13.25;12.50;;;;;11.76;44.14;98911.69;4856827;28;102427;-86
2021/03/25 10:54:23;;;;;;;;;15.75;13.50;;;;;11.79;44.32;98905.91;4779533;28;103083;-86
2021/03/25 10:57:19;;;;;;;;;18.50;12.75;;;;;11.80;44.49;98908.38;4901958;28;102659;-85
2021/03/25 11:00:00;;;;;;;;;17.75;14.75;;;;;11.82;44.31;98909.03;4908171;28;104073;-86
2021/03/25 11:02:37;;;;;;;;;13.00;12.00;;;;;11.83;44.30;98901.75;4894799;28;102241;-85
2021/03/25 11:05:22;;;;;;;;;17.75;12.50;;;;;11.85;44.15;98903.22;4922349;28;102293;-86
2021/03/25 11:07:59;;;;;;;;;13.75;10.25;;;;;11.88;44.19;98896.56;4913016;28;102799;-86
2021/03/25 11:10:34;;;;;;;;;12.75;12.50;;;;;11.88;44.11;98893.84;4853850;28;104078;-86
2021/03/25 11:13:19;;;;;;;;;17.00;13.00;;;;;11.90;44.15;98891.75;4781536;28;102354;-86
2021/03/25 11:15:47;;;;;;;;;16.25;13.00;;;;;11.91;44.06;98885.31;4767719;28;104076;-87
2021/03/25 11:18:27;;;;;;;;;17.00;13.75;;;;;11.93;44.38;98886.75;4919265;28;102306;-85
2021/03/25 11:20:54;;;;;;;;;14.00;13.00;;;;;11.96;44.49;98885.53;4823437;28;104159;-87
2021/03/25 11:23:22;;;;;;;;;15.75;13.75;;;;;11.98;43.74;98883.44;4883364;28;102366;-87
2021/03/25 11:26:11;;;;;;;;;14.75;13.75;;;;;11.99;44.19;98875.13;4896730;28;104275;-87
2021/03/25 11:28:38;;;;;;;;;14.00;12.50;;;;;12.01;43.93;98880.34;4906180;28;102696;-86
2021/03/25 11:31:18;;;;;;;;;12.75;11.25;;;;;12.03;44.00;98870.13;4926559;28;104018;-86
2021/03/25 11:33:47;;;;;;;;;13.50;13.25;;;;;12.04;43.56;98867.22;4897021;28;104347;-85
2021/03/25 11:36:32;;;;;;;;;15.50;12.00;;;;;12.06;43.71;98859.75;4911247;28;102659;-86
2021/03/25 11:39:22;;;;;;;;;17.25;12.25;;;;;12.07;43.93;98861.38;4902274;28;102266;-86
2021/03/25 11:41:52;;;;;;;;;16.25;13.75;;;;;12.09;44.01;98861.19;4903807;28;104084;-86
2021/03/25 11:44:43;;;;;;;;;12.25;10.50;;;;;12.11;43.81;98867.25;4897223;28;103376;-86
2021/03/25 11:47:31;;;;;;;;;12.00;10.50;;;;;12.13;43.75;98857.03;4901365;28;102490;-86
2021/03/25 11:50:00;;;;;;;;;10.25;10.25;;;;;12.16;43.43;98855.81;4883187;28;104876;-87
2021/03/25 11:52:26;;;;;;;;;13.50;12.00;;;;;12.16;44.03;98853.91;4866046;28;104065;-86